• Join FlightAware (Why Join?)
  • Login
  • US Flag 
01:44AM EDT


 

Airport Tracker/Info


-or-


 

Live Flight TrackerFlight Track Log ✈ UPS378 ✈ 02-Oct-2013 ✈ KMIA - MHLM / SAP

Flight Track Log - Related Links

Times and Time Zones

All times are in EDT time to prevent confusion due to time zone crossing. See the UPS378 flight status page for this flight to view local times or setup timezone preferences in your user account.

Time Position Orientation Groundspeed Altitude Reporting Facility
EDT Latitude Longitude Course Direction KTS MPH feet Rate Location/Type
09:20AM 25.8030 -80.2940 180° South 86 99  Level FlightAware
09:21AM 25.8040 -80.2830 84° East 152 175 200 2,100 Climbing FlightAware
09:21AM 25.8000 -80.2630 103° East 157 181 1,400 1,800 Climbing FlightAware
09:21AM 25.7940 -80.2480 114° Southeast 184 212 1,600 960 Climbing FlightAware
09:22AM 25.7860 -80.2330 121° Southeast 208 239 2,000 2,220 Climbing FlightAware
09:22AM 25.7790 -80.2150 113° Southeast 208 239 2,900 2,880 Climbing FlightAware
09:22AM 25.7690 -80.1970 122° Southeast 221 254 3,800 2,340 Climbing FlightAware
09:23AM 25.7620 -80.1910 142° Southeast 234 269 4,000 1,380 Climbing FlightAware
09:23AM 25.7500 -80.1850 156° South 252 290 4,300 2,100 Climbing FlightAware
09:23AM 25.7400 -80.1840 175° South 260 299 4,700 2,820 Climbing FlightAware
09:23AM 25.7270 -80.1870 192° South 265 305 5,200 2,520 Climbing FlightAware
09:23AM 25.7160 -80.1920 202° Southwest 270 311 5,600 2,880 Climbing FlightAware
09:24AM 25.6960 -80.2050 210° Southwest 273 314 6,600 3,060 Climbing FlightAware
09:24AM 25.6820 -80.2130 207° Southwest 276 318 7,200 2,760 Climbing FlightAware
09:24AM 25.6600 -80.2230 202° Southwest 281 323 8,000 2,820 Climbing FlightAware
09:24AM 25.6290 -80.2370 202° Southwest 286 329 9,300 2,220 Climbing FlightAware
09:25AM 25.5720 -80.2610 201° Southwest 309 356 10,800 1,680 Climbing FlightAware
09:26AM 25.5120 -80.2870 201° Southwest 349 402 11,700 1,500 Climbing FlightAware
09:26AM 25.4660 -80.3090 203° Southwest 378 435 12,500 2,100 Climbing FlightAware
09:27AM 25.4120 -80.3420 209° Southwest 377 434 14,000 2,280 Climbing FlightAware
09:28AM 25.3590 -80.3760 210° Southwest 392 451 15,200 2,040 Climbing FlightAware
09:28AM 25.2930 -80.4170 209° Southwest 395 455 16,600 2,040 Climbing FlightAware
09:29AM 25.2360 -80.4530 210° Southwest 410 472 17,800 1,920 Climbing FlightAware
09:29AM 25.1850 -80.4850 210° Southwest 410 472 18,700 1,680 Climbing FlightAware
09:30AM 25.1240 -80.5230 209° Southwest 426 490 19,700 1,680 Climbing FlightAware
09:31AM 25.0560 -80.5650 209° Southwest 426 490 20,800 1,680 Climbing FlightAware
09:31AM 24.9940 -80.6040 210° Southwest 439 505 21,800 1,620 Climbing FlightAware
09:32AM 24.9410 -80.6370 209° Southwest 443 510 22,600 1,500 Climbing FlightAware
09:32AM 24.8770 -80.6770 210° Southwest 442 509 23,500 1,500 Climbing FlightAware
09:33AM 24.8040 -80.7220 209° Southwest 458 527 24,500 1,680 Climbing FlightAware
09:33AM 24.7490 -80.7560 209° Southwest 462 532 25,400 1,620 Climbing FlightAware
09:34AM 24.6740 -80.8030 210° Southwest 462 532 26,400 1,500 Climbing FlightAware
09:35AM 24.6180 -80.8380 210° Southwest 465 535 27,200 1,620 Climbing FlightAware
09:35AM 24.5500 -80.8800 209° Southwest 476 548 28,200 1,500 Climbing FlightAware
09:36AM 24.4820 -80.9210 209° Southwest 476 548 29,100 1,800 Climbing FlightAware
09:36AM 24.4070 -80.9670 209° Southwest 463 533 30,500 2,220 Climbing FlightAware
09:37AM 24.3280 -81.0160 209° Southwest 465 535 31,900 1,680 Climbing FlightAware
09:38AM 24.2530 -81.0630 210° Southwest 464 534 32,900 780 Climbing FlightAware
09:38AM 24.1790 -81.1080 209° Southwest 460 529 33,000 60 Climbing FlightAware
09:39AM 24.1220 -81.1430 209° Southwest 460 529 33,000  Level FlightAware
09:39AM 24.0550 -81.1840 209° Southwest 463 533 33,000  Level FlightAware
09:40AM 23.9930 -81.2240 211° Southwest 461 531 33,000  Level FlightAware
09:41AM 23.9280 -81.2720 214° Southwest 454 522 33,000 540 Level FlightAware
09:41AM 23.8690 -81.3170 215° Southwest 457 526 33,700 1,440 Climbing FlightAware
09:42AM 23.8060 -81.3650 215° Southwest 457 526 34,600 1,140 Climbing FlightAware
09:42AM 23.7440 -81.4110 214° Southwest 454 522 35,000 300 Climbing FlightAware
09:43AM 23.6830 -81.4570 215° Southwest 450 518 35,000  Level FlightAware
09:44AM 23.6180 -81.5060 215° Southwest 449 517 35,000  Level FlightAware
09:44AM 23.5600 -81.5510 215° Southwest 449 517 35,000  Level FlightAware
09:45AM 23.4850 -81.6070 214° Southwest 451 519 35,000  Level FlightAware
09:46AM 23.4100 -81.6630 214° Southwest 451 519 35,000  Level FlightAware
09:46AM 23.3570 -81.7030 215° Southwest 451 519 35,000  Level FlightAware
09:47AM 23.3020 -81.7450 215° Southwest 451 519 35,000  Level FlightAware
09:48AM 23.2500 -81.7850 215° Southwest 451 519 35,000  Level FlightAware
09:48AM 23.1980 -81.8250 215° Southwest 451 519 35,000  Level FlightAware
09:49AM 23.1440 -81.8660 215° Southwest 451 519 35,000  Level FlightAware
09:49AM 23.0920 -81.9060 215° Southwest 451 519 35,000  Level FlightAware
09:50AM 23.0390 -81.9450 214° Southwest 451 519 35,000  Level FlightAware
09:51AM 22.9900 -81.9830 216° Southwest 451 519 35,000  Level FlightAware
09:51AM 22.9380 -82.0230 215° Southwest 451 519 35,000  Level FlightAware
09:52AM 22.8850 -82.0630 215° Southwest 451 519 35,000  Level FlightAware
09:52AM 22.8330 -82.1020 215° Southwest 451 519 35,000  Level FlightAware
09:53AM 22.7780 -82.1440 215° Southwest 451 519 35,000  Level FlightAware
09:54AM 22.7250 -82.1840 215° Southwest 451 519 35,000  Level FlightAware
09:54AM 22.6730 -82.2240 215° Southwest 451 519 35,000  Level FlightAware
09:55AM 22.6210 -82.2630 215° Southwest 451 519 35,000 120 Level FlightAware
09:57AM 22.4844 -82.4219 217° Southwest  Level FlightAware Approximate
09:58AM 22.3928 -82.4951 216° Southwest  Level FlightAware Approximate
09:59AM 22.3008 -82.5675 216° Southwest  Level FlightAware Approximate
10:00AM 22.2087 -82.6399 216° Southwest  Level FlightAware Approximate
10:01AM 22.1166 -82.7122 216° Southwest  Level FlightAware Approximate
10:02AM 22.0244 -82.7844 216° Southwest  Level FlightAware Approximate
10:03AM 21.9323 -82.8565 216° Southwest  Level FlightAware Approximate
10:04AM 21.8400 -82.9285 216° Southwest  Level FlightAware Approximate
10:05AM 21.7478 -83.0004 216° Southwest  Level FlightAware Approximate
10:06AM 21.6555 -83.0722 216° Southwest  Level FlightAware Approximate
10:07AM 21.5632 -83.1439 216° Southwest  Level FlightAware Approximate
10:08AM 21.4709 -83.2155 216° Southwest  Level FlightAware Approximate
10:09AM 21.3785 -83.2870 216° Southwest  Level FlightAware Approximate
10:10AM 21.2861 -83.3585 216° Southwest  Level FlightAware Approximate
10:10AM 21.0000 -83.5020 216° Southwest 439 505 37,000  Level FlightAware
10:11AM 20.9030 -83.5840 218° Southwest 442 509 37,000  Level FlightAware
10:12AM 20.8330 -83.6440 219° Southwest 445 512 37,000  Level FlightAware
10:12AM 20.7780 -83.6900 218° Southwest 445 512 37,000  Level FlightAware
10:13AM 20.7230 -83.7340 217° Southwest 446 513 37,000  Level FlightAware
10:13AM 20.6530 -83.7900 217° Southwest 447 514 37,000  Level FlightAware
10:14AM 20.5670 -83.8600 217° Southwest 449 517 37,000  Level FlightAware
10:15AM 20.5110 -83.9070 218° Southwest 452 520 37,000  Level FlightAware
10:16AM 20.4300 -83.9720 217° Southwest 455 524 37,000  Level FlightAware
10:16AM 20.3670 -84.0210 216° Southwest 455 524 37,000  Level FlightAware
10:17AM 20.3070 -84.0690 217° Southwest 460 529 37,000  Level FlightAware
10:18AM 20.2370 -84.1240 216° Southwest 460 529 37,000  Level FlightAware
10:18AM 20.1800 -84.1690 217° Southwest 462 532 37,000  Level FlightAware
10:19AM 20.1270 -84.2100 216° Southwest 464 534 37,000  Level FlightAware
10:20AM 20.0530 -84.2680 216° Southwest 466 536 37,000  Level FlightAware
10:20AM 19.9980 -84.3110 216° Southwest 466 536 37,000  Level FlightAware
10:21AM 19.9020 -84.3860 216° Southwest 468 539 37,000  Level FlightAware
10:21AM 19.8550 -84.4230 217° Southwest 470 541 37,000  Level FlightAware
10:22AM 19.7630 -84.4950 216° Southwest 469 540 37,000  Level FlightAware
10:23AM 19.6980 -84.5450 216° Southwest 468 539 37,000  Level FlightAware
10:23AM 19.6330 -84.5960 216° Southwest 468 539 37,000  Level FlightAware
10:24AM 19.5600 -84.6530 216° Southwest 467 537 37,000  Level FlightAware
10:25AM 19.5060 -84.6940 216° Southwest 467 537 37,000  Level FlightAware
10:25AM 19.4530 -84.7350 216° Southwest 467 537 37,000  Level FlightAware
10:26AM 19.3960 -84.7790 216° Southwest 467 537 37,000  Level FlightAware
10:27AM 19.3010 -84.8550 217° Southwest 447 514 37,000  Level FlightAware
10:27AM 19.2480 -84.8950 215° Southwest 447 514 37,000  Level FlightAware
10:28AM 19.1970 -84.9350 217° Southwest 447 514 37,000  Level FlightAware
10:28AM 19.1170 -84.9970 216° Southwest 460 529 37,000  Level FlightAware
10:29AM 19.0500 -85.0490 216° Southwest 473 544 37,000  Level FlightAware
10:30AM 18.9900 -85.0950 216° Southwest 473 544 37,000  Level FlightAware
10:30AM 18.9160 -85.1520 216° Southwest 475 547 37,000  Level FlightAware
10:31AM 18.8690 -85.1880 216° Southwest 475 547 37,000  Level FlightAware
10:31AM 18.7900 -85.2490 216° Southwest 474 545 37,000  Level FlightAware
10:32AM 18.7360 -85.2910 216° Southwest 474 545 37,000  Level FlightAware
10:33AM 18.6800 -85.3340 216° Southwest 474 545 37,000  Level FlightAware
10:33AM 18.6080 -85.3890 216° Southwest 474 545 37,000  Level FlightAware
10:34AM 18.5520 -85.4320 216° Southwest 474 545 37,000  Level FlightAware
10:35AM 18.4980 -85.4730 216° Southwest 474 545 37,000  Level FlightAware
10:35AM 18.4440 -85.5150 216° Southwest 474 545 37,000  Level FlightAware
10:36AM 18.3890 -85.5570 216° Southwest 474 545 37,000  Level FlightAware
10:37AM 18.3350 -85.5980 216° Southwest 474 545 37,000  Level FlightAware
10:37AM 18.2810 -85.6400 216° Southwest 474 545 37,000  Level FlightAware
10:38AM 18.2260 -85.6810 215° Southwest 474 545 37,000  Level FlightAware
10:38AM 18.1710 -85.7240 217° Southwest 474 545 37,000  Level FlightAware
10:39AM 18.1160 -85.7650 215° Southwest 474 545 37,000  Level FlightAware
10:39AM 18.0650 -85.8050 217° Southwest 474 545 37,000  Level FlightAware
10:40AM 18.0110 -85.8460 216° Southwest 474 545 37,000  Level FlightAware
10:41AM 17.9550 -85.8890 216° Southwest 474 545 37,000  Level FlightAware
10:43AM 17.7845 -86.0086 214° Southwest  Level FlightAware Approximate
10:44AM 17.6898 -86.0749 214° Southwest  Level FlightAware Approximate
10:45AM 17.5951 -86.1412 214° Southwest  Level FlightAware Approximate
10:46AM 17.5003 -86.2074 214° Southwest  Level FlightAware Approximate
10:47AM 17.4055 -86.2736 214° Southwest  Level FlightAware Approximate
10:48AM 17.3107 -86.3396 214° Southwest  Level FlightAware Approximate
10:49AM 17.2159 -86.4056 214° Southwest  Level FlightAware Approximate
10:50AM 17.1066 -86.4323 189° South  Level FlightAware Approximate
10:51AM 16.9941 -86.4507 186° South  Level FlightAware Approximate
10:52AM 16.8808 -86.4632 186° South  Level FlightAware Approximate
10:53AM 16.7676 -86.4758 186° South  Level FlightAware Approximate
10:54AM 16.6541 -86.4833 180° South  Level FlightAware Approximate
10:55AM 16.5422 -86.5015 183° South  Level FlightAware Approximate
10:56AM 16.4285 -86.5086 183° South  Level FlightAware Approximate
10:57AM 16.3149 -86.5157 183° South  Level FlightAware Approximate
10:58AM 16.2548 -86.6058 237° Southwest  Level FlightAware Approximate
10:59AM 16.1927 -86.7052 237° Southwest  Level FlightAware Approximate
11:00AM 16.1304 -86.8044 235° Southwest  Level FlightAware Approximate
11:01AM 16.0676 -86.9033 238° Southwest  Level FlightAware Approximate
11:02AM 16.0068 -87.0034 238° Southwest  Level FlightAware Approximate
11:03AM 15.9458 -87.1035 238° Southwest  Level FlightAware Approximate
11:04AM 15.8849 -87.2035 238° Southwest  Level FlightAware Approximate
11:05AM 15.8244 -87.3038 238° Southwest  Level FlightAware Approximate
11:06AM 15.7685 -87.4067 237° Southwest  Level FlightAware Approximate
11:07AM 15.7057 -87.5054 237° Southwest  Level FlightAware Approximate
11:08AM 15.6421 -87.6035 235° Southwest  Level FlightAware Approximate
11:09AM 15.5773 -87.7007 235° Southwest  Level FlightAware Approximate
11:10AM 15.5225 -87.8015 238° Southwest  Level FlightAware Approximate
11:11AM 15.4667 -87.9038 270° West  Level FlightAware Approximate
11:12AM 15.4526 -87.9236 270° West  Level Estimated
11:13AM 15.4526 -87.9236 270° West  Level Estimated
11:14AM 15.4526 -87.9236 270° West  Level Estimated
11:15AM 15.4526 -87.9236 270° West  Level Estimated
11:16AM 15.4526 -87.9236 270° West  Level Estimated
11:17AM 15.4526 -87.9236 270° West  Level Estimated
11:18AM 15.4526 -87.9236 270° West  Level Estimated
11:19AM 15.4526 -87.9236 270° West  Level Estimated
11:20AM 15.4526 -87.9236 270° West  Level Estimated
11:21AM 15.4526 -87.9236 270° West  Level Estimated
11:22AM 15.4526 -87.9236 270° West  Level Estimated
11:23AM 15.4526 -87.9236 270° West  Level Estimated
11:24AM 15.4526 -87.9236 270° West  Level Estimated
11:25AM 15.4526 -87.9236 270° West  Level Estimated
11:26AM 15.4526 -87.9236 270° West  Level Estimated
11:27AM 15.4526 -87.9236 270° West  Level Estimated
11:28AM 15.4526 -87.9236 270° West  Level Estimated
11:29AM 15.4526 -87.9236 270° West  Level Estimated
11:30AM 15.4526 -87.9236 270° West  Level Estimated